createdAt,value
2022-07-28T00:03:32.710Z,1.83
2022-07-28T00:06:40.986Z,1.97
2022-07-28T00:09:47.328Z,2.07
2022-07-28T00:12:53.153Z,2.03
2022-07-28T00:15:59.607Z,2.00
2022-07-28T00:19:06.900Z,2.07
2022-07-28T00:22:16.002Z,2.10
2022-07-28T00:25:21.400Z,2.00
2022-07-28T00:28:27.696Z,2.07
2022-07-28T00:31:33.442Z,2.00
2022-07-28T00:34:40.764Z,2.30
2022-07-28T00:37:50.718Z,2.10
2022-07-28T00:41:16.920Z,2.00
2022-07-28T00:44:22.522Z,2.40
2022-07-28T00:47:33.616Z,2.17
2022-07-28T00:50:42.819Z,2.10
2022-07-28T00:53:52.129Z,2.30
2022-07-28T00:56:57.503Z,2.30
2022-07-28T01:00:04.164Z,2.90
2022-07-28T01:03:10.213Z,2.00
2022-07-28T01:06:29.429Z,2.30
2022-07-28T01:09:53.888Z,2.10
2022-07-28T01:13:07.347Z,2.47
2022-07-28T01:16:13.597Z,2.00
2022-07-28T01:19:36.838Z,2.10
2022-07-28T01:22:48.877Z,2.10
2022-07-28T01:26:14.694Z,2.40
2022-07-28T01:29:32.017Z,2.23
2022-07-28T01:32:46.277Z,2.30
2022-07-28T01:35:57.985Z,2.20
2022-07-28T01:39:06.396Z,1.70
2022-07-28T01:42:16.348Z,2.30
2022-07-28T01:45:23.989Z,2.30
2022-07-28T01:48:34.491Z,2.20
2022-07-28T01:51:41.506Z,2.10
2022-07-28T01:54:49.818Z,2.23
2022-07-28T01:57:58.726Z,2.50
2022-07-28T02:01:07.036Z,2.17
2022-07-28T02:04:18.711Z,2.20
2022-07-28T02:07:25.863Z,1.97
2022-07-28T02:10:33.149Z,1.93
2022-07-28T02:13:39.418Z,2.33
2022-07-28T02:16:50.251Z,2.33
2022-07-28T02:20:00.407Z,2.03
2022-07-28T02:23:08.717Z,2.20
2022-07-28T02:26:18.071Z,2.70
2022-07-28T02:29:49.639Z,2.00
2022-07-28T02:32:56.827Z,2.50
2022-07-28T02:36:14.164Z,2.20
2022-07-28T02:39:27.137Z,2.30
2022-07-28T02:42:36.539Z,2.20
2022-07-28T02:45:44.989Z,2.67
2022-07-28T02:48:55.514Z,2.10
2022-07-28T02:52:07.902Z,2.43
2022-07-28T02:55:17.849Z,2.30
2022-07-28T02:58:26.959Z,2.40
2022-07-28T03:01:35.089Z,2.20
2022-07-28T03:05:03.178Z,2.30
2022-07-28T03:08:19.238Z,2.83
2022-07-28T03:11:24.963Z,2.27
2022-07-28T03:14:31.212Z,2.27
2022-07-28T03:17:36.646Z,2.60
2022-07-28T03:20:43.395Z,2.50
2022-07-28T03:23:54.736Z,2.60
2022-07-28T03:27:06.119Z,2.50
2022-07-28T03:30:15.543Z,2.40
2022-07-28T03:33:22.081Z,2.87
2022-07-28T03:36:35.951Z,2.60
2022-07-28T03:39:50.035Z,2.53
2022-07-28T03:42:56.606Z,2.60
2022-07-28T03:46:03.060Z,1.97
2022-07-28T03:49:11.604Z,2.23
2022-07-28T03:52:18.066Z,2.50
2022-07-28T03:55:26.802Z,2.63
2022-07-28T03:58:33.101Z,2.60
2022-07-28T04:01:38.724Z,2.23
2022-07-28T04:04:45.233Z,2.30
2022-07-28T04:07:52.271Z,2.57
2022-07-28T04:11:01.320Z,2.40
2022-07-28T04:14:07.345Z,1.80
2022-07-28T04:17:13.665Z,2.00
2022-07-28T04:20:20.557Z,2.40
2022-07-28T04:23:27.046Z,2.80
2022-07-28T04:26:35.521Z,2.60
2022-07-28T04:29:41.907Z,2.10
2022-07-28T04:32:48.237Z,2.20
2022-07-28T04:35:54.854Z,2.63
2022-07-28T04:39:00.667Z,2.57
2022-07-28T04:42:11.782Z,2.60
2022-07-28T04:45:17.206Z,2.47
2022-07-28T04:48:23.971Z,4.03
2022-07-28T04:51:31.641Z,3.57
2022-07-28T04:54:38.264Z,4.93
2022-07-28T04:57:46.708Z,2.80
2022-07-28T05:00:53.089Z,4.03
2022-07-28T05:03:58.586Z,2.80
2022-07-28T05:07:07.856Z,2.50
2022-07-28T05:10:18.431Z,3.00
2022-07-28T05:13:33.359Z,3.90
2022-07-28T05:16:39.776Z,4.87
2022-07-28T05:19:47.018Z,2.47
2022-07-28T05:22:53.963Z,2.43
2022-07-28T05:26:00.241Z,2.30
2022-07-28T05:29:09.994Z,4.20
2022-07-28T05:32:17.748Z,3.00
2022-07-28T05:35:24.127Z,2.83
2022-07-28T05:38:31.107Z,3.23
2022-07-28T05:41:36.717Z,3.70
2022-07-28T05:44:45.791Z,5.33
2022-07-28T05:47:53.006Z,7.30
2022-07-28T05:50:59.382Z,5.13
2022-07-28T05:54:06.298Z,3.37
2022-07-28T05:57:15.221Z,3.20
2022-07-28T06:00:25.991Z,6.67
2022-07-28T06:03:41.468Z,6.43
2022-07-28T06:06:47.343Z,3.80
2022-07-28T06:09:53.569Z,3.80
2022-07-28T06:12:59.596Z,4.27
2022-07-28T06:16:13.279Z,4.43
2022-07-28T06:19:18.921Z,4.37
2022-07-28T06:22:25.165Z,4.60
2022-07-28T06:25:32.292Z,5.07
2022-07-28T06:28:38.909Z,4.60
2022-07-28T06:31:47.079Z,4.70
2022-07-28T06:34:53.290Z,4.27
2022-07-28T06:37:58.641Z,4.67
2022-07-28T06:41:06.718Z,4.67
2022-07-28T06:44:12.786Z,4.23
2022-07-28T06:47:23.400Z,4.00
2022-07-28T06:50:29.301Z,3.37
2022-07-28T06:53:35.709Z,3.93
2022-07-28T06:56:41.073Z,3.93
2022-07-28T06:59:48.394Z,4.20
2022-07-28T07:02:56.877Z,3.37
2022-07-28T07:06:03.518Z,4.03
2022-07-28T07:09:10.278Z,3.53
2022-07-28T07:12:16.494Z,4.23
2022-07-28T07:15:22.009Z,4.20
2022-07-28T07:18:33.245Z,4.10
2022-07-28T07:21:38.701Z,3.43
2022-07-28T07:24:44.878Z,3.53
2022-07-28T07:27:50.426Z,3.47
2022-07-28T07:30:56.776Z,3.57
2022-07-28T07:34:06.669Z,3.77
2022-07-28T07:37:15.324Z,2.60
2022-07-28T07:40:20.678Z,3.10
2022-07-28T07:43:26.964Z,2.60
2022-07-28T07:46:32.366Z,2.50
2022-07-28T07:49:45.154Z,2.43
2022-07-28T07:52:52.850Z,2.90
2022-07-28T07:55:59.182Z,2.33
2022-07-28T07:59:06.625Z,2.10
2022-07-28T08:02:13.036Z,1.80
2022-07-28T08:05:21.577Z,2.13
2022-07-28T08:08:46.438Z,2.37
2022-07-28T08:11:53.880Z,2.20
2022-07-28T08:15:00.322Z,2.20
2022-07-28T08:18:07.517Z,1.97
2022-07-28T08:21:16.723Z,2.63
2022-07-28T08:24:33.052Z,1.80
2022-07-28T08:27:40.370Z,1.80
2022-07-28T08:30:45.976Z,2.20
2022-07-28T08:33:53.814Z,2.50
2022-07-28T08:37:03.192Z,2.30
2022-07-28T08:40:15.029Z,2.20
2022-07-28T08:43:33.698Z,1.97
2022-07-28T08:46:41.830Z,1.70
2022-07-28T08:49:47.319Z,1.87
2022-07-28T08:52:56.904Z,1.93
2022-07-28T08:56:07.583Z,2.10
2022-07-28T08:59:13.849Z,2.00
2022-07-28T09:02:20.191Z,1.93
2022-07-28T09:05:28.032Z,2.30
2022-07-28T09:08:36.457Z,2.50
2022-07-28T09:11:43.205Z,2.80
2022-07-28T09:14:49.254Z,1.97
2022-07-28T09:17:55.837Z,1.90
2022-07-28T09:21:01.273Z,1.70
2022-07-28T09:24:11.716Z,2.27
2022-07-28T09:27:18.773Z,1.93
2022-07-28T09:30:33.338Z,2.13
2022-07-28T09:33:43.106Z,2.20
2022-07-28T09:36:50.332Z,2.30
2022-07-28T09:40:04.061Z,2.23
2022-07-28T09:43:12.050Z,2.27
2022-07-28T09:46:19.185Z,2.40
2022-07-28T09:49:43.426Z,2.13
2022-07-28T09:52:50.040Z,1.70
2022-07-28T09:56:04.712Z,1.90
2022-07-28T09:59:12.863Z,2.28
2022-07-28T10:02:27.266Z,2.60
2022-07-28T10:05:43.741Z,2.50
2022-07-28T10:08:52.721Z,1.83
2022-07-28T10:12:21.182Z,1.80
2022-07-28T10:15:50.693Z,1.80
2022-07-28T10:18:57.465Z,2.10
2022-07-28T10:22:06.406Z,1.90
2022-07-28T10:25:13.704Z,2.10
2022-07-28T10:28:24.802Z,2.00
2022-07-28T10:31:38.804Z,1.73
2022-07-28T10:34:59.251Z,1.83
2022-07-28T10:38:15.043Z,2.33
2022-07-28T10:41:25.201Z,2.42
2022-07-28T10:44:38.277Z,2.00
2022-07-28T10:47:44.795Z,2.50
2022-07-28T10:50:50.456Z,2.15
2022-07-28T10:54:01.047Z,2.20
2022-07-28T10:57:09.177Z,2.28
2022-07-28T11:00:26.386Z,2.65
2022-07-28T11:03:44.651Z,2.35
2022-07-28T11:06:51.398Z,2.30
2022-07-28T11:09:57.075Z,2.90
2022-07-28T11:13:06.106Z,2.67
2022-07-28T11:16:26.707Z,2.38
2022-07-28T11:23:47.612Z,2.33
2022-07-28T11:26:54.503Z,2.60
2022-07-28T11:30:00.182Z,2.72
2022-07-28T11:33:11.042Z,2.55
2022-07-28T11:36:16.499Z,2.50
2022-07-28T11:39:25.124Z,2.50
2022-07-28T11:42:33.789Z,2.55
2022-07-28T11:45:45.735Z,2.15
2022-07-28T11:49:24.065Z,2.45
2022-07-28T11:52:31.282Z,2.33
2022-07-28T11:55:49.181Z,2.55
2022-07-28T11:59:04.296Z,2.67
2022-07-28T12:02:10.333Z,2.72
2022-07-28T12:05:20.697Z,2.33
2022-07-28T12:08:26.086Z,2.65
2022-07-28T12:11:35.625Z,2.30
2022-07-28T12:14:44.947Z,2.60
2022-07-28T12:17:52.486Z,2.45
2022-07-28T12:21:05.211Z,2.47
2022-07-28T12:24:15.574Z,2.28
2022-07-28T12:27:31.829Z,2.35
2022-07-28T12:30:38.409Z,2.60
2022-07-28T12:33:45.111Z,2.55
2022-07-28T12:36:57.164Z,2.38
2022-07-28T12:40:03.552Z,2.15
2022-07-28T12:43:09.899Z,2.60
2022-07-28T12:46:15.358Z,2.10
2022-07-28T12:49:25.635Z,2.17
2022-07-28T12:52:33.925Z,2.42
2022-07-28T12:55:43.201Z,2.83
2022-07-28T12:58:48.885Z,2.72
2022-07-28T13:01:57.439Z,2.58
2022-07-28T13:05:03.303Z,2.47
2022-07-28T13:08:12.565Z,2.15
2022-07-28T13:11:43.195Z,2.22
2022-07-28T13:14:48.675Z,2.72
2022-07-28T13:17:57.268Z,2.15
2022-07-28T13:21:03.579Z,2.55
2022-07-28T13:24:14.508Z,2.33
2022-07-28T13:27:21.068Z,2.53
2022-07-28T13:30:27.262Z,2.45
2022-07-28T13:33:39.511Z,2.42
2022-07-28T13:36:45.083Z,2.45
2022-07-28T13:39:54.916Z,2.10
2022-07-28T13:43:00.348Z,2.38
2022-07-28T13:46:07.855Z,2.13
2022-07-28T13:49:14.102Z,2.17
2022-07-28T13:52:32.503Z,2.22
2022-07-28T13:55:42.625Z,2.15
2022-07-28T13:58:48.847Z,2.45
2022-07-28T14:01:55.594Z,2.38
2022-07-28T14:05:03.001Z,2.15
2022-07-28T14:08:08.832Z,1.95
2022-07-28T14:11:19.523Z,2.20
2022-07-28T14:14:28.538Z,2.63
2022-07-28T14:17:43.554Z,2.33
2022-07-28T14:20:50.332Z,2.45
2022-07-28T14:23:57.178Z,2.55
2022-07-28T14:27:06.542Z,2.50
2022-07-28T14:30:14.415Z,2.65
2022-07-28T14:33:20.756Z,2.28
2022-07-28T14:36:26.967Z,2.38
2022-07-28T14:39:32.597Z,2.40
2022-07-28T14:42:42.076Z,2.55
2022-07-28T14:46:01.624Z,2.30
2022-07-28T14:49:13.831Z,2.30
2022-07-28T14:52:19.210Z,2.42
2022-07-28T14:55:26.676Z,2.40
2022-07-28T14:58:34.935Z,2.08
2022-07-28T15:01:41.259Z,2.38
2022-07-28T15:04:46.837Z,2.33
2022-07-28T15:07:53.613Z,1.92
2022-07-28T15:10:59.238Z,2.15
2022-07-28T15:14:08.642Z,2.22
2022-07-28T15:17:14.293Z,2.08
2022-07-28T15:20:20.536Z,2.40
2022-07-28T15:23:26.412Z,2.70
2022-07-28T15:26:32.622Z,2.10
2022-07-28T15:29:43.419Z,2.65
2022-07-28T15:32:56.299Z,1.67
2022-07-28T15:36:03.480Z,2.00
2022-07-28T15:39:14.192Z,2.08
2022-07-28T15:42:19.762Z,2.30
2022-07-28T15:45:29.367Z,2.30
2022-07-28T15:48:35.076Z,2.08
2022-07-28T15:51:42.223Z,1.98
2022-07-28T15:54:47.933Z,2.25
2022-07-28T15:57:55.783Z,2.03
2022-07-28T16:01:03.959Z,2.33
2022-07-28T16:04:10.832Z,1.80
2022-07-28T16:07:23.709Z,2.13
2022-07-28T16:10:30.147Z,2.17
2022-07-28T16:13:37.624Z,1.85
2022-07-28T16:16:46.732Z,1.80
2022-07-28T16:19:52.319Z,2.00
2022-07-28T16:22:59.094Z,2.13
2022-07-28T16:26:08.235Z,2.10
2022-07-28T16:29:14.559Z,2.30
2022-07-28T16:32:22.762Z,2.10
2022-07-28T16:35:32.891Z,2.20
2022-07-28T16:38:38.263Z,2.20
2022-07-28T16:41:47.763Z,1.88
2022-07-28T16:44:53.835Z,2.50
2022-07-28T16:48:04.132Z,2.25
2022-07-28T16:51:09.708Z,2.22
2022-07-28T16:54:16.171Z,2.10
2022-07-28T16:57:21.836Z,1.85
2022-07-28T17:00:29.847Z,2.00
2022-07-28T17:03:38.081Z,2.00
2022-07-28T17:06:45.423Z,1.77
2022-07-28T17:09:54.375Z,1.92
2022-07-28T17:13:00.543Z,2.35
2022-07-28T17:16:07.873Z,2.15
2022-07-28T17:19:18.736Z,2.00
2022-07-28T17:22:25.087Z,1.98
2022-07-28T17:29:00.878Z,2.15
2022-07-28T17:32:08.378Z,2.05
2022-07-28T17:35:31.299Z,2.17
2022-07-28T17:38:38.173Z,2.05
2022-07-28T17:41:43.793Z,2.00
2022-07-28T17:44:51.246Z,1.80
2022-07-28T17:47:56.611Z,2.20
2022-07-28T17:51:06.163Z,2.13
2022-07-28T17:54:13.910Z,2.22
2022-07-28T17:57:21.783Z,2.30
2022-07-28T18:00:30.127Z,2.38
2022-07-28T18:03:59.386Z,2.45
2022-07-28T18:07:06.351Z,2.30
2022-07-28T18:10:12.893Z,2.70
2022-07-28T18:13:19.907Z,2.38
2022-07-28T18:16:26.240Z,2.40
2022-07-28T18:19:32.489Z,2.13
2022-07-28T18:22:41.759Z,2.10
2022-07-28T18:25:47.100Z,2.28
2022-07-28T18:28:53.821Z,2.00
2022-07-28T18:31:59.148Z,2.17
2022-07-28T18:35:06.509Z,2.13
2022-07-28T18:38:14.725Z,2.28
2022-07-28T18:41:20.984Z,2.30
2022-07-28T18:44:26.606Z,2.13
2022-07-28T18:47:32.903Z,2.23
2022-07-28T18:50:40.915Z,2.67
2022-07-28T18:53:50.223Z,2.10
2022-07-28T18:56:55.590Z,2.43
2022-07-28T19:00:03.799Z,2.43
2022-07-28T19:03:09.485Z,2.43
2022-07-28T19:06:15.756Z,2.30
2022-07-28T19:09:24.169Z,2.37
2022-07-28T19:12:31.616Z,2.60
2022-07-28T19:15:37.059Z,2.67
2022-07-28T19:18:43.685Z,2.60
2022-07-28T19:21:49.142Z,2.63
2022-07-28T19:24:58.486Z,2.67
2022-07-28T19:28:03.884Z,3.07
2022-07-28T19:31:10.938Z,3.10
2022-07-28T19:34:17.579Z,2.63
2022-07-28T19:37:23.963Z,3.03
2022-07-28T19:40:32.435Z,2.97
2022-07-28T19:43:38.699Z,2.60
2022-07-28T19:46:45.585Z,2.70
2022-07-28T19:49:52.183Z,3.10
2022-07-28T19:52:57.778Z,3.33
2022-07-28T19:56:09.014Z,3.07
2022-07-28T19:59:15.148Z,3.57
2022-07-28T20:02:21.406Z,3.03
2022-07-28T20:05:26.992Z,4.03
2022-07-28T20:08:33.217Z,4.37
2022-07-28T20:11:41.404Z,4.13
2022-07-28T20:14:47.576Z,4.10
2022-07-28T20:17:53.176Z,4.90
2022-07-28T20:20:59.558Z,4.60
2022-07-28T20:24:27.770Z,4.23
2022-07-28T20:27:54.194Z,4.37
2022-07-28T20:30:59.579Z,4.37
2022-07-28T20:34:07.223Z,5.00
2022-07-28T20:37:28.470Z,4.80
2022-07-28T20:40:39.292Z,5.37
2022-07-28T20:44:11.220Z,5.10
2022-07-28T20:47:16.692Z,4.80
2022-07-28T20:50:25.298Z,5.23
2022-07-28T20:53:33.247Z,4.87
2022-07-28T20:56:38.619Z,4.50
2022-07-28T20:59:49.153Z,5.07
2022-07-28T21:02:54.788Z,5.03
2022-07-28T21:06:01.430Z,4.07
2022-07-28T21:09:08.340Z,4.27
2022-07-28T21:12:16.534Z,4.33
2022-07-28T21:15:24.952Z,4.17
2022-07-28T21:18:31.284Z,4.57
2022-07-28T21:21:39.270Z,4.00
2022-07-28T21:24:45.446Z,3.97
2022-07-28T21:28:06.782Z,3.83
2022-07-28T21:31:17.398Z,3.33
2022-07-28T21:34:22.777Z,3.30
2022-07-28T21:37:29.226Z,3.60
2022-07-28T21:40:38.707Z,3.00
2022-07-28T21:43:45.487Z,3.10
2022-07-28T21:46:53.877Z,2.90
2022-07-28T21:50:00.122Z,3.10
2022-07-28T21:53:06.878Z,3.07
2022-07-28T21:56:13.562Z,2.77
2022-07-28T21:59:18.918Z,3.10
2022-07-28T22:02:27.942Z,2.80
2022-07-28T22:05:34.462Z,3.00
2022-07-28T22:08:40.986Z,3.10
2022-07-28T22:11:46.504Z,2.93
2022-07-28T22:14:53.217Z,3.07
2022-07-28T22:18:01.413Z,3.30
2022-07-28T22:21:07.984Z,3.03
2022-07-28T22:24:13.616Z,3.27
2022-07-28T22:27:19.991Z,3.10
2022-07-28T22:30:30.344Z,3.37
2022-07-28T22:33:39.415Z,3.20
2022-07-28T22:36:45.218Z,3.40
2022-07-28T22:39:51.774Z,3.40
2022-07-28T22:42:57.454Z,3.20
2022-07-28T22:46:04.289Z,3.80
2022-07-28T22:49:12.590Z,3.53
2022-07-28T22:52:18.776Z,3.50
2022-07-28T22:58:47.490Z,3.07
2022-07-28T23:01:52.832Z,3.10
2022-07-28T23:05:03.594Z,3.33
2022-07-28T23:08:09.458Z,3.10
2022-07-28T23:11:17.167Z,3.27
2022-07-28T23:14:22.638Z,3.23
2022-07-28T23:17:28.880Z,3.57
2022-07-28T23:20:37.532Z,3.63
2022-07-28T23:23:44.030Z,4.10
2022-07-28T23:26:49.524Z,3.83
2022-07-28T23:29:55.817Z,3.20
2022-07-28T23:33:03.016Z,3.50
2022-07-28T23:36:16.846Z,4.10
2022-07-28T23:39:33.400Z,4.17
2022-07-28T23:42:39.846Z,3.20
2022-07-28T23:45:45.340Z,3.10
2022-07-28T23:48:51.849Z,3.70
2022-07-28T23:52:00.341Z,2.83
2022-07-28T23:55:08.369Z,3.80
2022-07-28T23:58:13.920Z,3.10
